sensor_id;sensor_type;location;lat;lon;timestamp;temperature;humidity
6756;DHT22;3415;51.148;7.014;2022-11-03T07:00:37;11.50;1.00
6756;DHT22;3415;51.148;7.014;2022-11-03T07:03:07;11.50;1.00
6756;DHT22;3415;51.148;7.014;2022-11-03T07:05:35;11.50;1.00
6756;DHT22;3415;51.148;7.014;2022-11-03T07:08:11;11.50;1.00
6756;DHT22;3415;51.148;7.014;2022-11-03T07:10:39;11.50;1.00
6756;DHT22;3415;51.148;7.014;2022-11-03T07:13:11;11.50;1.00
6756;DHT22;3415;51.148;7.014;2022-11-03T07:15:43;11.50;1.00
6756;DHT22;3415;51.148;7.014;2022-11-03T07:18:16;11.50;1.00
6756;DHT22;3415;51.148;7.014;2022-11-03T07:20:45;11.60;1.00
6756;DHT22;3415;51.148;7.014;2022-11-03T07:23:15;11.50;1.00
6756;DHT22;3415;51.148;7.014;2022-11-03T07:25:44;11.50;1.00
6756;DHT22;3415;51.148;7.014;2022-11-03T07:28:14;11.60;1.00
6756;DHT22;3415;51.148;7.014;2022-11-03T07:30:43;11.60;1.00
6756;DHT22;3415;51.148;7.014;2022-11-03T07:33:13;11.70;1.00
6756;DHT22;3415;51.148;7.014;2022-11-03T07:35:43;11.70;1.00
6756;DHT22;3415;51.148;7.014;2022-11-03T07:38:13;11.90;1.00
6756;DHT22;3415;51.148;7.014;2022-11-03T07:40:41;11.90;1.00
6756;DHT22;3415;51.148;7.014;2022-11-03T07:43:14;12.20;1.00
6756;DHT22;3415;51.148;7.014;2022-11-03T07:45:47;12.10;1.00
6756;DHT22;3415;51.148;7.014;2022-11-03T07:48:22;12.50;1.00
6756;DHT22;3415;51.148;7.014;2022-11-03T07:50:51;12.50;1.00
6756;DHT22;3415;51.148;7.014;2022-11-03T07:53:27;12.90;1.00
6756;DHT22;3415;51.148;7.014;2022-11-03T07:55:58;13.40;1.00
6756;DHT22;3415;51.148;7.014;2022-11-03T07:58:33;13.50;1.00
6756;DHT22;3415;51.148;7.014;2022-11-03T08:01:13;13.50;1.00
6756;DHT22;3415;51.148;7.014;2022-11-03T08:03:44;13.70;1.00
6756;DHT22;3415;51.148;7.014;2022-11-03T08:06:11;13.60;1.00
6756;DHT22;3415;51.148;7.014;2022-11-03T08:08:38;13.60;1.00
6756;DHT22;3415;51.148;7.014;2022-11-03T08:11:05;13.70;1.00
6756;DHT22;3415;51.148;7.014;2022-11-03T08:13:32;13.90;1.00
6756;DHT22;3415;51.148;7.014;2022-11-03T08:16:01;14.30;1.00
6756;DHT22;3415;51.148;7.014;2022-11-03T08:18:28;14.50;1.00
6756;DHT22;3415;51.148;7.014;2022-11-03T08:20:55;14.50;1.00
6756;DHT22;3415;51.148;7.014;2022-11-03T08:23:21;14.60;1.00
6756;DHT22;3415;51.148;7.014;2022-11-03T08:25:48;14.60;1.00
6756;DHT22;3415;51.148;7.014;2022-11-03T08:28:15;14.20;1.00
6756;DHT22;3415;51.148;7.014;2022-11-03T08:30:42;14.20;1.00
6756;DHT22;3415;51.148;7.014;2022-11-03T08:33:10;13.90;1.00
6756;DHT22;3415;51.148;7.014;2022-11-03T08:35:37;13.70;1.00
6756;DHT22;3415;51.148;7.014;2022-11-03T08:38:03;13.70;1.00
6756;DHT22;3415;51.148;7.014;2022-11-03T08:40:30;14.10;1.00
6756;DHT22;3415;51.148;7.014;2022-11-03T08:42:57;14.40;1.00
6756;DHT22;3415;51.148;7.014;2022-11-03T08:45:25;14.20;1.00
6756;DHT22;3415;51.148;7.014;2022-11-03T08:47:52;14.10;1.00
6756;DHT22;3415;51.148;7.014;2022-11-03T08:50:20;14.10;1.00
6756;DHT22;3415;51.148;7.014;2022-11-03T08:52:47;14.10;1.00
6756;DHT22;3415;51.148;7.014;2022-11-03T08:55:14;13.90;1.00
6756;DHT22;3415;51.148;7.014;2022-11-03T08:57:41;14.00;1.00
6756;DHT22;3415;51.148;7.014;2022-11-03T09:00:09;14.00;1.00
6756;DHT22;3415;51.148;7.014;2022-11-03T09:02:36;14.20;1.00
6756;DHT22;3415;51.148;7.014;2022-11-03T09:05:03;14.40;1.00
6756;DHT22;3415;51.148;7.014;2022-11-03T09:07:33;14.50;1.00
6756;DHT22;3415;51.148;7.014;2022-11-03T09:10:00;14.90;1.00
6756;DHT22;3415;51.148;7.014;2022-11-03T09:12:27;15.20;1.00
6756;DHT22;3415;51.148;7.014;2022-11-03T09:14:53;15.60;1.00
6756;DHT22;3415;51.148;7.014;2022-11-03T09:17:20;15.40;1.00
6756;DHT22;3415;51.148;7.014;2022-11-03T09:19:47;15.40;1.00
6756;DHT22;3415;51.148;7.014;2022-11-03T09:22:14;15.50;1.00
6756;DHT22;3415;51.148;7.014;2022-11-03T09:24:42;15.50;1.00
6756;DHT22;3415;51.148;7.014;2022-11-03T09:27:09;15.60;1.00
6756;DHT22;3415;51.148;7.014;2022-11-03T09:29:36;15.60;1.00
6756;DHT22;3415;51.148;7.014;2022-11-03T09:32:03;15.40;1.00
6756;DHT22;3415;51.148;7.014;2022-11-03T09:34:30;15.30;1.00
6756;DHT22;3415;51.148;7.014;2022-11-03T09:36:57;15.50;1.00
6756;DHT22;3415;51.148;7.014;2022-11-03T09:39:24;15.20;1.00
6756;DHT22;3415;51.148;7.014;2022-11-03T09:41:52;15.20;1.00
6756;DHT22;3415;51.148;7.014;2022-11-03T09:44:22;15.40;1.00
6756;DHT22;3415;51.148;7.014;2022-11-03T09:46:49;15.30;1.00
6756;DHT22;3415;51.148;7.014;2022-11-03T09:49:18;15.70;1.00
6756;DHT22;3415;51.148;7.014;2022-11-03T09:51:46;16.20;1.00
6756;DHT22;3415;51.148;7.014;2022-11-03T09:54:14;16.70;99.90
6756;DHT22;3415;51.148;7.014;2022-11-03T09:56:42;16.50;99.90
6756;DHT22;3415;51.148;7.014;2022-11-03T09:59:17;16.50;99.90
6756;DHT22;3415;51.148;7.014;2022-11-03T10:01:46;16.60;99.90
6756;DHT22;3415;51.148;7.014;2022-11-03T10:04:15;16.30;99.90
6756;DHT22;3415;51.148;7.014;2022-11-03T10:06:42;16.00;99.90
6756;DHT22;3415;51.148;7.014;2022-11-03T10:09:13;15.90;99.90
6756;DHT22;3415;51.148;7.014;2022-11-03T10:11:41;15.80;99.90
6756;DHT22;3415;51.148;7.014;2022-11-03T10:14:11;15.80;99.90
6756;DHT22;3415;51.148;7.014;2022-11-03T10:16:40;15.40;99.90
6756;DHT22;3415;51.148;7.014;2022-11-03T10:19:09;15.40;99.90
6756;DHT22;3415;51.148;7.014;2022-11-03T10:21:37;15.40;99.90
6756;DHT22;3415;51.148;7.014;2022-11-03T10:24:05;15.30;99.90
6756;DHT22;3415;51.148;7.014;2022-11-03T10:26:42;15.20;99.90
6756;DHT22;3415;51.148;7.014;2022-11-03T10:29:16;15.20;99.90
6756;DHT22;3415;51.148;7.014;2022-11-03T10:31:47;15.10;99.90
6756;DHT22;3415;51.148;7.014;2022-11-03T10:34:31;15.10;99.90
6756;DHT22;3415;51.148;7.014;2022-11-03T10:37:10;15.20;99.90
6756;DHT22;3415;51.148;7.014;2022-11-03T10:39:37;15.20;99.90
6756;DHT22;3415;51.148;7.014;2022-11-03T10:42:04;15.10;99.90
6756;DHT22;3415;51.148;7.014;2022-11-03T10:44:31;15.00;99.90
6756;DHT22;3415;51.148;7.014;2022-11-03T10:47:00;15.10;1.00
6756;DHT22;3415;51.148;7.014;2022-11-03T10:49:28;15.00;1.00
6756;DHT22;3415;51.148;7.014;2022-11-03T10:52:05;14.90;1.00
6756;DHT22;3415;51.148;7.014;2022-11-03T10:54:35;14.80;99.90
6756;DHT22;3415;51.148;7.014;2022-11-03T10:57:02;14.80;1.00
6756;DHT22;3415;51.148;7.014;2022-11-03T10:59:32;14.80;1.00
6756;DHT22;3415;51.148;7.014;2022-11-03T11:02:07;14.70;1.00
6756;DHT22;3415;51.148;7.014;2022-11-03T11:04:36;14.70;1.00
6756;DHT22;3415;51.148;7.014;2022-11-03T11:07:02;14.70;1.00
6756;DHT22;3415;51.148;7.014;2022-11-03T11:09:37;14.70;1.00
6756;DHT22;3415;51.148;7.014;2022-11-03T11:12:09;14.70;1.00
6756;DHT22;3415;51.148;7.014;2022-11-03T11:14:51;14.60;1.00
6756;DHT22;3415;51.148;7.014;2022-11-03T11:17:47;14.60;1.00
6756;DHT22;3415;51.148;7.014;2022-11-03T11:20:41;14.70;1.00
6756;DHT22;3415;51.148;7.014;2022-11-03T11:26:30;14.60;1.00
6756;DHT22;3415;51.148;7.014;2022-11-03T11:38:54;15.10;1.00
6756;DHT22;3415;51.148;7.014;2022-11-03T11:41:33;15.10;1.00
6756;DHT22;3415;51.148;7.014;2022-11-03T11:44:48;15.00;1.00
6756;DHT22;3415;51.148;7.014;2022-11-03T11:47:30;14.90;1.00
6756;DHT22;3415;51.148;7.014;2022-11-03T11:50:16;15.00;1.00
6756;DHT22;3415;51.148;7.014;2022-11-03T11:52:49;14.80;1.00
6756;DHT22;3415;51.148;7.014;2022-11-03T11:55:21;14.80;1.00
6756;DHT22;3415;51.148;7.014;2022-11-03T11:57:51;14.70;1.00
6756;DHT22;3415;51.148;7.014;2022-11-03T12:00:19;14.50;1.00
6756;DHT22;3415;51.148;7.014;2022-11-03T12:02:47;14.50;1.00
6756;DHT22;3415;51.148;7.014;2022-11-03T12:05:22;14.50;1.00
6756;DHT22;3415;51.148;7.014;2022-11-03T12:07:50;14.40;1.00
6756;DHT22;3415;51.148;7.014;2022-11-03T12:10:21;14.40;1.00
6756;DHT22;3415;51.148;7.014;2022-11-03T12:12:50;14.30;1.00
6756;DHT22;3415;51.148;7.014;2022-11-03T12:18:32;14.20;1.00
6756;DHT22;3415;51.148;7.014;2022-11-03T12:20:59;14.20;1.00
6756;DHT22;3415;51.148;7.014;2022-11-03T12:23:34;14.10;1.00
6756;DHT22;3415;51.148;7.014;2022-11-03T12:26:03;14.10;1.00
6756;DHT22;3415;51.148;7.014;2022-11-03T12:28:34;14.10;1.00
6756;DHT22;3415;51.148;7.014;2022-11-03T12:31:02;14.30;1.00
6756;DHT22;3415;51.148;7.014;2022-11-03T12:33:29;14.30;1.00
6756;DHT22;3415;51.148;7.014;2022-11-03T12:35:56;14.40;1.00
6756;DHT22;3415;51.148;7.014;2022-11-03T12:38:23;14.40;1.00
6756;DHT22;3415;51.148;7.014;2022-11-03T12:43:19;14.30;1.00
6756;DHT22;3415;51.148;7.014;2022-11-03T12:45:46;14.30;1.00
6756;DHT22;3415;51.148;7.014;2022-11-03T12:50:40;14.30;1.00
6756;DHT22;3415;51.148;7.014;2022-11-03T12:53:07;14.30;1.00
6756;DHT22;3415;51.148;7.014;2022-11-03T12:55:34;14.30;1.00
6756;DHT22;3415;51.148;7.014;2022-11-03T13:00:29;14.10;1.00
6756;DHT22;3415;51.148;7.014;2022-11-03T13:02:56;14.00;1.00
6756;DHT22;3415;51.148;7.014;2022-11-03T13:05:23;14.00;1.00
6756;DHT22;3415;51.148;7.014;2022-11-03T13:07:50;13.90;1.00
6756;DHT22;3415;51.148;7.014;2022-11-03T13:10:17;13.90;1.00
6756;DHT22;3415;51.148;7.014;2022-11-03T13:12:44;13.90;1.00
6756;DHT22;3415;51.148;7.014;2022-11-03T13:15:11;13.90;1.00
6756;DHT22;3415;51.148;7.014;2022-11-03T13:17:41;13.90;1.00
6756;DHT22;3415;51.148;7.014;2022-11-03T13:20:09;13.90;1.00
6756;DHT22;3415;51.148;7.014;2022-11-03T13:22:37;13.80;1.00
6756;DHT22;3415;51.148;7.014;2022-11-03T13:25:05;13.80;1.00
6756;DHT22;3415;51.148;7.014;2022-11-03T13:27:32;13.90;1.00
6756;DHT22;3415;51.148;7.014;2022-11-03T13:29:59;13.90;1.00
6756;DHT22;3415;51.148;7.014;2022-11-03T13:32:25;13.90;1.00
6756;DHT22;3415;51.148;7.014;2022-11-03T13:34:53;13.90;1.00
6756;DHT22;3415;51.148;7.014;2022-11-03T13:37:20;13.90;1.00
6756;DHT22;3415;51.148;7.014;2022-11-03T13:42:15;13.90;1.00
6756;DHT22;3415;51.148;7.014;2022-11-03T13:44:41;13.90;1.00
6756;DHT22;3415;51.148;7.014;2022-11-03T13:47:08;13.90;1.00
6756;DHT22;3415;51.148;7.014;2022-11-03T13:49:35;13.90;1.00
6756;DHT22;3415;51.148;7.014;2022-11-03T13:52:03;13.90;1.00
6756;DHT22;3415;51.148;7.014;2022-11-03T13:54:30;13.80;1.00
6756;DHT22;3415;51.148;7.014;2022-11-03T13:56:57;13.90;1.00
6756;DHT22;3415;51.148;7.014;2022-11-03T13:59:24;13.70;1.00
6756;DHT22;3415;51.148;7.014;2022-11-03T14:01:51;13.70;1.00
6756;DHT22;3415;51.148;7.014;2022-11-03T14:04:18;13.70;1.00
6756;DHT22;3415;51.148;7.014;2022-11-03T14:06:45;13.60;1.00
6756;DHT22;3415;51.148;7.014;2022-11-03T14:09:13;13.60;1.00
6756;DHT22;3415;51.148;7.014;2022-11-03T14:11:40;13.60;1.00
6756;DHT22;3415;51.148;7.014;2022-11-03T14:14:24;13.60;1.00
6756;DHT22;3415;51.148;7.014;2022-11-03T14:16:51;13.70;1.00
6756;DHT22;3415;51.148;7.014;2022-11-03T14:19:18;13.60;1.00
6756;DHT22;3415;51.148;7.014;2022-11-03T14:21:45;13.60;1.00
6756;DHT22;3415;51.148;7.014;2022-11-03T14:24:13;13.60;1.00
6756;DHT22;3415;51.148;7.014;2022-11-03T14:26:39;13.60;1.00
6756;DHT22;3415;51.148;7.014;2022-11-03T14:29:06;13.60;1.00
6756;DHT22;3415;51.148;7.014;2022-11-03T14:31:33;13.60;1.00
6756;DHT22;3415;51.148;7.014;2022-11-03T14:34:01;13.50;1.00
6756;DHT22;3415;51.148;7.014;2022-11-03T14:36:28;13.50;1.00
6756;DHT22;3415;51.148;7.014;2022-11-03T14:38:55;13.50;1.00
6756;DHT22;3415;51.148;7.014;2022-11-03T14:41:23;13.30;1.00
6756;DHT22;3415;51.148;7.014;2022-11-03T14:44:07;13.30;1.00
6756;DHT22;3415;51.148;7.014;2022-11-03T14:46:34;13.30;1.00
6756;DHT22;3415;51.148;7.014;2022-11-03T14:49:01;13.00;1.00
6756;DHT22;3415;51.148;7.014;2022-11-03T14:51:28;12.90;1.00
6756;DHT22;3415;51.148;7.014;2022-11-03T14:53:55;12.80;1.00
6756;DHT22;3415;51.148;7.014;2022-11-03T14:56:24;12.70;1.00
6756;DHT22;3415;51.148;7.014;2022-11-03T14:58:51;12.60;1.00
6756;DHT22;3415;51.148;7.014;2022-11-03T15:01:18;12.50;1.00
6756;DHT22;3415;51.148;7.014;2022-11-03T15:03:45;12.50;1.00
6756;DHT22;3415;51.148;7.014;2022-11-03T15:06:12;12.20;1.00
6756;DHT22;3415;51.148;7.014;2022-11-03T15:08:39;12.10;1.00
6756;DHT22;3415;51.148;7.014;2022-11-03T15:11:07;12.00;1.00
6756;DHT22;3415;51.148;7.014;2022-11-03T15:13:36;11.90;1.00
6756;DHT22;3415;51.148;7.014;2022-11-03T15:16:03;11.90;1.00
6756;DHT22;3415;51.148;7.014;2022-11-03T15:18:31;11.70;1.00
6756;DHT22;3415;51.148;7.014;2022-11-03T15:23:25;11.70;1.00
6756;DHT22;3415;51.148;7.014;2022-11-03T15:25:53;11.60;1.00
6756;DHT22;3415;51.148;7.014;2022-11-03T15:28:20;11.50;1.00
6756;DHT22;3415;51.148;7.014;2022-11-03T15:30:48;11.50;1.00
6756;DHT22;3415;51.148;7.014;2022-11-03T15:33:15;11.50;1.00
6756;DHT22;3415;51.148;7.014;2022-11-03T15:35:41;11.50;1.00
6756;DHT22;3415;51.148;7.014;2022-11-03T15:38:09;11.40;1.00
6756;DHT22;3415;51.148;7.014;2022-11-03T15:40:37;11.40;1.00
6756;DHT22;3415;51.148;7.014;2022-11-03T15:43:04;11.40;1.00
6756;DHT22;3415;51.148;7.014;2022-11-03T15:45:31;11.40;1.00
6756;DHT22;3415;51.148;7.014;2022-11-03T15:48:00;11.30;1.00
6756;DHT22;3415;51.148;7.014;2022-11-03T15:50:27;11.30;1.00
6756;DHT22;3415;51.148;7.014;2022-11-03T15:52:54;11.20;1.00
6756;DHT22;3415;51.148;7.014;2022-11-03T15:55:21;11.20;1.00
6756;DHT22;3415;51.148;7.014;2022-11-03T15:57:49;11.30;1.00
6756;DHT22;3415;51.148;7.014;2022-11-03T16:00:16;11.20;1.00
6756;DHT22;3415;51.148;7.014;2022-11-03T16:02:44;11.20;1.00
6756;DHT22;3415;51.148;7.014;2022-11-03T16:05:13;11.20;1.00
6756;DHT22;3415;51.148;7.014;2022-11-03T16:07:40;11.20;1.00
6756;DHT22;3415;51.148;7.014;2022-11-03T16:10:07;11.20;1.00
6756;DHT22;3415;51.148;7.014;2022-11-03T16:12:34;11.10;1.00
6756;DHT22;3415;51.148;7.014;2022-11-03T16:15:02;11.10;1.00
6756;DHT22;3415;51.148;7.014;2022-11-03T16:19:56;11.10;1.00
6756;DHT22;3415;51.148;7.014;2022-11-03T16:22:24;11.10;1.00
6756;DHT22;3415;51.148;7.014;2022-11-03T16:24:51;11.10;1.00
6756;DHT22;3415;51.148;7.014;2022-11-03T16:27:18;11.10;1.00
6756;DHT22;3415;51.148;7.014;2022-11-03T16:29:45;11.00;1.00
6756;DHT22;3415;51.148;7.014;2022-11-03T16:32:12;11.10;1.00
6756;DHT22;3415;51.148;7.014;2022-11-03T16:37:06;11.10;1.00
6756;DHT22;3415;51.148;7.014;2022-11-03T16:39:34;11.10;1.00
6756;DHT22;3415;51.148;7.014;2022-11-03T16:42:03;11.10;1.00
6756;DHT22;3415;51.148;7.014;2022-11-03T16:46:59;11.10;1.00
6756;DHT22;3415;51.148;7.014;2022-11-03T16:49:26;11.00;1.00
6756;DHT22;3415;51.148;7.014;2022-11-03T16:51:53;11.00;1.00
6756;DHT22;3415;51.148;7.014;2022-11-03T16:54:20;11.00;1.00
6756;DHT22;3415;51.148;7.014;2022-11-03T16:56:48;11.00;1.00
6756;DHT22;3415;51.148;7.014;2022-11-03T16:59:15;11.00;1.00
6756;DHT22;3415;51.148;7.014;2022-11-03T17:01:42;10.90;1.00
6756;DHT22;3415;51.148;7.014;2022-11-03T17:04:08;11.00;1.00
6756;DHT22;3415;51.148;7.014;2022-11-03T17:09:03;11.00;1.00
6756;DHT22;3415;51.148;7.014;2022-11-03T17:11:30;11.00;1.00
6756;DHT22;3415;51.148;7.014;2022-11-03T17:14:06;11.00;1.00
6756;DHT22;3415;51.148;7.014;2022-11-03T17:16:33;11.10;1.00
6756;DHT22;3415;51.148;7.014;2022-11-03T17:19:00;11.10;1.00
6756;DHT22;3415;51.148;7.014;2022-11-03T17:21:27;11.10;1.00
6756;DHT22;3415;51.148;7.014;2022-11-03T17:23:54;11.10;1.00
6756;DHT22;3415;51.148;7.014;2022-11-03T17:26:27;11.10;1.00
6756;DHT22;3415;51.148;7.014;2022-11-03T17:28:57;11.10;1.00
6756;DHT22;3415;51.148;7.014;2022-11-03T17:31:25;11.10;1.00
6756;DHT22;3415;51.148;7.014;2022-11-03T17:33:52;11.10;1.00
6756;DHT22;3415;51.148;7.014;2022-11-03T17:36:22;11.20;1.00
6756;DHT22;3415;51.148;7.014;2022-11-03T17:38:49;11.20;1.00
6756;DHT22;3415;51.148;7.014;2022-11-03T17:43:43;11.10;1.00
6756;DHT22;3415;51.148;7.014;2022-11-03T17:46:10;11.10;1.00
6756;DHT22;3415;51.148;7.014;2022-11-03T17:48:38;11.10;1.00
6756;DHT22;3415;51.148;7.014;2022-11-03T17:51:05;11.10;1.00
6756;DHT22;3415;51.148;7.014;2022-11-03T17:53:38;11.10;1.00
6756;DHT22;3415;51.148;7.014;2022-11-03T17:56:08;11.10;1.00
6756;DHT22;3415;51.148;7.014;2022-11-03T17:58:38;11.10;1.00
6756;DHT22;3415;51.148;7.014;2022-11-03T18:03:33;11.20;1.00
6756;DHT22;3415;51.148;7.014;2022-11-03T18:06:10;11.20;1.00
6756;DHT22;3415;51.148;7.014;2022-11-03T18:08:38;11.20;1.00
6756;DHT22;3415;51.148;7.014;2022-11-03T18:13:32;11.20;1.00
6756;DHT22;3415;51.148;7.014;2022-11-03T18:16:02;11.20;1.00
6756;DHT22;3415;51.148;7.014;2022-11-03T18:18:32;11.20;1.00
6756;DHT22;3415;51.148;7.014;2022-11-03T18:21:02;11.20;1.00
6756;DHT22;3415;51.148;7.014;2022-11-03T18:25:58;11.20;1.00
6756;DHT22;3415;51.148;7.014;2022-11-03T18:28:26;11.20;1.00
6756;DHT22;3415;51.148;7.014;2022-11-03T18:33:24;11.20;1.00
6756;DHT22;3415;51.148;7.014;2022-11-03T18:40:50;11.20;1.00
6756;DHT22;3415;51.148;7.014;2022-11-03T18:43:18;11.20;1.00
6756;DHT22;3415;51.148;7.014;2022-11-03T18:45:46;11.20;1.00
6756;DHT22;3415;51.148;7.014;2022-11-03T18:53:12;11.30;1.00
6756;DHT22;3415;51.148;7.014;2022-11-03T18:55:40;11.30;1.00
6756;DHT22;3415;51.148;7.014;2022-11-03T18:58:15;11.30;1.00
6756;DHT22;3415;51.148;7.014;2022-11-03T19:03:15;11.30;1.00
6756;DHT22;3415;51.148;7.014;2022-11-03T19:05:42;11.30;1.00
6756;DHT22;3415;51.148;7.014;2022-11-03T19:08:13;11.30;1.00
6756;DHT22;3415;51.148;7.014;2022-11-03T19:10:43;11.30;1.00
6756;DHT22;3415;51.148;7.014;2022-11-03T19:15:40;11.30;1.00
6756;DHT22;3415;51.148;7.014;2022-11-03T19:18:11;11.20;1.00
6756;DHT22;3415;51.148;7.014;2022-11-03T19:25:34;11.20;1.00
6756;DHT22;3415;51.148;7.014;2022-11-03T19:28:02;11.20;1.00
6756;DHT22;3415;51.148;7.014;2022-11-03T19:30:29;11.20;1.00
6756;DHT22;3415;51.148;7.014;2022-11-03T19:35:27;11.20;4.50
6756;DHT22;3415;51.148;7.014;2022-11-03T19:37:58;11.10;11.40
6756;DHT22;3415;51.148;7.014;2022-11-03T19:40:26;11.10;41.00
6756;DHT22;3415;51.148;7.014;2022-11-03T19:45:21;11.10;41.10
6756;DHT22;3415;51.148;7.014;2022-11-03T19:47:51;11.10;52.20
6756;DHT22;3415;51.148;7.014;2022-11-03T19:50:23;11.10;73.10
6756;DHT22;3415;51.148;7.014;2022-11-03T19:52:53;11.10;84.20
6756;DHT22;3415;51.148;7.014;2022-11-03T19:55:21;11.10;79.50
6756;DHT22;3415;51.148;7.014;2022-11-03T19:57:49;11.10;78.70
6756;DHT22;3415;51.148;7.014;2022-11-03T20:00:16;11.10;82.50
6756;DHT22;3415;51.148;7.014;2022-11-03T20:02:45;11.10;94.40
6756;DHT22;3415;51.148;7.014;2022-11-03T20:05:13;11.00;99.90
6756;DHT22;3415;51.148;7.014;2022-11-03T20:07:41;11.10;99.90
6756;DHT22;3415;51.148;7.014;2022-11-03T20:12:40;11.10;99.90
6756;DHT22;3415;51.148;7.014;2022-11-03T20:15:13;11.10;99.90
6756;DHT22;3415;51.148;7.014;2022-11-03T20:17:40;11.10;99.90
6756;DHT22;3415;51.148;7.014;2022-11-03T20:20:11;11.20;96.60
6756;DHT22;3415;51.148;7.014;2022-11-03T20:22:40;11.20;94.20
6756;DHT22;3415;51.148;7.014;2022-11-03T20:25:15;11.20;88.50
6756;DHT22;3415;51.148;7.014;2022-11-03T20:27:43;11.20;85.50
6756;DHT22;3415;51.148;7.014;2022-11-03T20:30:13;11.20;88.10
6756;DHT22;3415;51.148;7.014;2022-11-03T20:32:40;11.20;94.20
6756;DHT22;3415;51.148;7.014;2022-11-03T20:35:12;11.20;93.60
6756;DHT22;3415;51.148;7.014;2022-11-03T20:37:40;11.10;91.90
6756;DHT22;3415;51.148;7.014;2022-11-03T20:40:12;11.20;94.20
6756;DHT22;3415;51.148;7.014;2022-11-03T20:47:39;11.20;93.50
6756;DHT22;3415;51.148;7.014;2022-11-03T20:50:06;11.20;95.40
6756;DHT22;3415;51.148;7.014;2022-11-03T20:52:36;11.20;95.30
6756;DHT22;3415;51.148;7.014;2022-11-03T20:55:12;11.20;95.70
6756;DHT22;3415;51.148;7.014;2022-11-03T21:00:11;11.20;98.90
6756;DHT22;3415;51.148;7.014;2022-11-03T21:02:39;11.20;98.40
6756;DHT22;3415;51.148;7.014;2022-11-03T21:05:12;11.20;99.90
6756;DHT22;3415;51.148;7.014;2022-11-03T21:10:09;11.20;99.90
6756;DHT22;3415;51.148;7.014;2022-11-03T21:12:36;11.20;99.90
6756;DHT22;3415;51.148;7.014;2022-11-03T21:15:21;11.20;99.90
6756;DHT22;3415;51.148;7.014;2022-11-03T21:18:09;11.10;99.90
6756;DHT22;3415;51.148;7.014;2022-11-03T21:20:53;11.20;99.90
6756;DHT22;3415;51.148;7.014;2022-11-03T21:23:24;11.20;99.90
6756;DHT22;3415;51.148;7.014;2022-11-03T21:25:51;11.20;99.90
6756;DHT22;3415;51.148;7.014;2022-11-03T21:28:19;11.20;99.90
6756;DHT22;3415;51.148;7.014;2022-11-03T21:30:48;11.10;99.90
6756;DHT22;3415;51.148;7.014;2022-11-03T21:33:15;11.10;99.90
6756;DHT22;3415;51.148;7.014;2022-11-03T21:35:43;11.10;99.90
6756;DHT22;3415;51.148;7.014;2022-11-03T21:38:12;11.10;99.90
6756;DHT22;3415;51.148;7.014;2022-11-03T21:40:43;11.10;99.90
6756;DHT22;3415;51.148;7.014;2022-11-03T21:43:11;11.10;99.90
6756;DHT22;3415;51.148;7.014;2022-11-03T21:46:03;11.10;99.90
6756;DHT22;3415;51.148;7.014;2022-11-03T21:48:30;11.10;99.90
6756;DHT22;3415;51.148;7.014;2022-11-03T21:51:14;11.10;99.90
6756;DHT22;3415;51.148;7.014;2022-11-03T21:53:41;11.10;99.90
6756;DHT22;3415;51.148;7.014;2022-11-03T21:56:09;11.10;99.90
6756;DHT22;3415;51.148;7.014;2022-11-03T21:58:36;11.10;99.90
6756;DHT22;3415;51.148;7.014;2022-11-03T22:01:03;11.10;99.90
6756;DHT22;3415;51.148;7.014;2022-11-03T22:03:30;11.10;99.90
6756;DHT22;3415;51.148;7.014;2022-11-03T22:05:58;11.10;99.90
6756;DHT22;3415;51.148;7.014;2022-11-03T22:08:25;11.10;99.90
6756;DHT22;3415;51.148;7.014;2022-11-03T22:10:52;11.10;99.90
6756;DHT22;3415;51.148;7.014;2022-11-03T22:13:40;11.10;99.90
6756;DHT22;3415;51.148;7.014;2022-11-03T22:18:48;11.10;99.90
6756;DHT22;3415;51.148;7.014;2022-11-03T22:21:15;11.10;99.90
6756;DHT22;3415;51.148;7.014;2022-11-03T22:23:59;11.10;99.90
6756;DHT22;3415;51.148;7.014;2022-11-03T22:26:43;11.10;99.90
6756;DHT22;3415;51.148;7.014;2022-11-03T22:29:25;11.10;99.90
6756;DHT22;3415;51.148;7.014;2022-11-03T22:32:12;11.10;99.90
6756;DHT22;3415;51.148;7.014;2022-11-03T22:34:40;11.10;99.90
6756;DHT22;3415;51.148;7.014;2022-11-03T22:37:24;11.10;99.90
6756;DHT22;3415;51.148;7.014;2022-11-03T22:39:51;11.10;99.90
6756;DHT22;3415;51.148;7.014;2022-11-03T22:42:35;11.10;99.90
6756;DHT22;3415;51.148;7.014;2022-11-03T22:45:21;11.10;1.00
6756;DHT22;3415;51.148;7.014;2022-11-03T22:48:06;11.10;1.00
6756;DHT22;3415;51.148;7.014;2022-11-03T22:55:47;11.10;99.90
6756;DHT22;3415;51.148;7.014;2022-11-03T23:00:41;11.00;99.90
6756;DHT22;3415;51.148;7.014;2022-11-03T23:03:09;10.90;99.90
6756;DHT22;3415;51.148;7.014;2022-11-03T23:05:36;10.90;99.90
6756;DHT22;3415;51.148;7.014;2022-11-03T23:10:30;10.60;99.90
6756;DHT22;3415;51.148;7.014;2022-11-03T23:12:57;10.60;99.90
6756;DHT22;3415;51.148;7.014;2022-11-03T23:15:24;10.50;99.90
6756;DHT22;3415;51.148;7.014;2022-11-03T23:17:58;10.50;99.90
6756;DHT22;3415;51.148;7.014;2022-11-03T23:20:43;10.40;99.90
6756;DHT22;3415;51.148;7.014;2022-11-03T23:23:27;10.40;99.90
6756;DHT22;3415;51.148;7.014;2022-11-03T23:26:12;10.90;99.90
6756;DHT22;3415;51.148;7.014;2022-11-03T23:28:39;10.30;94.90
6756;DHT22;3415;51.148;7.014;2022-11-03T23:33:34;10.20;61.70
6756;DHT22;3415;51.148;7.014;2022-11-03T23:36:02;10.10;60.60
6756;DHT22;3415;51.148;7.014;2022-11-03T23:38:30;10.10;67.80
6756;DHT22;3415;51.148;7.014;2022-11-03T23:41:00;10.10;71.00
6756;DHT22;3415;51.148;7.014;2022-11-03T23:43:27;10.10;70.90
6756;DHT22;3415;51.148;7.014;2022-11-03T23:45:54;10.10;74.20
6756;DHT22;3415;51.148;7.014;2022-11-03T23:48:39;10.10;75.90
6756;DHT22;3415;51.148;7.014;2022-11-03T23:51:12;10.00;65.70
6756;DHT22;3415;51.148;7.014;2022-11-03T23:53:39;10.10;64.40
6756;DHT22;3415;51.148;7.014;2022-11-03T23:56:07;10.00;66.70
6756;DHT22;3415;51.148;7.014;2022-11-03T23:58:51;10.00;75.90
